createdAt,value
2023-04-01T00:00:56.862Z,94.78
2023-04-01T00:01:59.907Z,94.74
2023-04-01T00:03:03.202Z,94.77
2023-04-01T00:04:06.490Z,94.70
2023-04-01T00:05:11.378Z,94.73
2023-04-01T00:06:15.982Z,94.84
2023-04-01T00:07:18.867Z,94.80
2023-04-01T00:08:21.853Z,94.84
2023-04-01T00:09:24.836Z,94.96
2023-04-01T00:10:32.737Z,95.00
2023-04-01T00:11:37.954Z,94.93
2023-04-01T00:12:41.731Z,94.99
2023-04-01T00:13:44.759Z,95.02
2023-04-01T00:14:47.665Z,94.96
2023-04-01T00:15:50.890Z,95.00
2023-04-01T00:16:53.917Z,94.99
2023-04-01T00:17:57.037Z,94.95
2023-04-01T00:19:01.067Z,94.97
2023-04-01T00:20:06.899Z,94.96
2023-04-01T00:21:09.896Z,94.88
2023-04-01T00:22:13.112Z,94.85
2023-04-01T00:23:16.108Z,94.74
2023-04-01T00:24:19.154Z,94.70
2023-04-01T00:25:23.105Z,94.70
2023-04-01T00:26:26.298Z,94.83
2023-04-01T00:27:29.245Z,94.76
2023-04-01T00:28:32.504Z,94.81
2023-04-01T00:29:35.727Z,94.70
2023-04-01T00:30:38.810Z,94.82
2023-04-01T00:31:41.736Z,94.93
2023-04-01T00:32:44.847Z,94.90
2023-04-01T00:33:47.837Z,94.87
2023-04-01T00:34:54.114Z,94.94
2023-04-01T00:35:57.273Z,94.93
2023-04-01T00:37:00.229Z,94.83
2023-04-01T00:38:04.209Z,94.97
2023-04-01T00:39:07.173Z,94.82
2023-04-01T00:40:26.022Z,94.83
2023-04-01T00:41:29.165Z,95.06
2023-04-01T00:42:32.601Z,95.17
2023-04-01T00:43:36.072Z,95.32
2023-04-01T00:44:39.628Z,95.15
2023-04-01T00:45:44.601Z,95.23
2023-04-01T00:46:48.386Z,95.21
2023-04-01T00:47:51.558Z,95.30
2023-04-01T00:48:56.947Z,95.32
2023-04-01T00:50:00.877Z,95.36
2023-04-01T00:51:20.043Z,95.41
2023-04-01T00:52:26.671Z,95.52
2023-04-01T00:53:32.402Z,95.60
2023-04-01T00:54:37.064Z,95.59
2023-04-01T00:55:44.910Z,95.69
2023-04-01T00:56:57.275Z,95.54
2023-04-01T00:58:03.140Z,95.60
2023-04-01T00:59:12.699Z,95.58
2023-04-01T01:00:16.961Z,95.48
2023-04-01T01:01:23.374Z,95.54
2023-04-01T01:02:26.988Z,95.55
2023-04-01T01:03:30.071Z,95.48
2023-04-01T01:04:34.915Z,95.62
2023-04-01T01:06:22.865Z,95.48
2023-04-01T01:07:41.527Z,95.42
2023-04-01T01:09:16.881Z,95.54
2023-04-01T01:10:36.072Z,95.67
2023-04-01T01:11:45.325Z,95.69
2023-04-01T01:13:00.266Z,95.65
2023-04-01T01:14:15.033Z,95.73
2023-04-01T01:15:26.568Z,95.75
2023-04-01T01:16:33.404Z,95.75
2023-04-01T01:17:52.939Z,95.86
2023-04-01T01:19:06.052Z,95.83
2023-04-01T01:20:35.098Z,95.90
2023-04-01T01:21:49.806Z,95.89
2023-04-01T01:23:29.987Z,95.90
2023-04-01T01:24:32.832Z,96.00
2023-04-01T01:26:00.519Z,95.94
2023-04-01T01:27:17.559Z,96.02
2023-04-01T01:28:45.734Z,96.03
2023-04-01T01:30:10.528Z,96.07
2023-04-01T01:31:17.568Z,96.09
2023-04-01T01:33:05.800Z,96.07
2023-04-01T01:34:33.118Z,96.16
2023-04-01T01:35:51.083Z,96.15
2023-04-01T01:37:03.203Z,96.21
2023-04-01T01:38:16.997Z,96.22
2023-04-01T01:39:31.363Z,96.22
2023-04-01T01:40:41.061Z,96.16
2023-04-01T01:41:45.023Z,96.24
2023-04-01T01:42:52.950Z,96.31
2023-04-01T01:43:59.805Z,96.40
2023-04-01T01:45:05.099Z,96.24
2023-04-01T01:46:18.716Z,96.26
2023-04-01T01:47:23.751Z,96.35
2023-04-01T01:48:28.861Z,96.37
2023-04-01T01:49:34.997Z,96.37
2023-04-01T01:50:40.343Z,96.30
2023-04-01T01:51:44.315Z,96.31
2023-04-01T01:52:48.775Z,96.38
2023-04-01T01:53:51.758Z,96.44
2023-04-01T01:54:59.505Z,96.39
2023-04-01T01:56:13.677Z,96.41
2023-04-01T01:57:20.853Z,96.44
2023-04-01T01:58:27.084Z,96.44
2023-04-01T01:59:31.354Z,96.41
2023-04-01T02:00:36.271Z,96.41
2023-04-01T02:01:44.089Z,96.33
2023-04-01T02:02:49.595Z,96.48
2023-04-01T02:03:54.619Z,96.59
2023-04-01T02:04:57.891Z,96.40
2023-04-01T02:06:02.864Z,96.54
2023-04-01T02:07:10.317Z,96.42
2023-04-01T02:08:19.127Z,96.51
2023-04-01T02:09:22.161Z,96.47
2023-04-01T02:10:28.195Z,96.42
2023-04-01T02:11:37.023Z,96.56
2023-04-01T02:12:43.267Z,96.56
2023-04-01T02:13:55.714Z,96.53
2023-04-01T02:15:10.261Z,96.54
2023-04-01T02:16:22.334Z,96.53
2023-04-01T02:17:28.901Z,96.53
2023-04-01T02:18:36.245Z,96.55
2023-04-01T02:19:48.750Z,96.57
2023-04-01T02:20:52.824Z,96.47
2023-04-01T02:22:03.089Z,96.43
2023-04-01T02:23:09.082Z,96.46
2023-04-01T02:24:16.347Z,96.30
2023-04-01T02:25:24.544Z,96.26
2023-04-01T02:26:28.469Z,96.23
2023-04-01T02:27:31.973Z,96.11
2023-04-01T02:28:39.483Z,96.11
2023-04-01T02:29:42.552Z,96.14
2023-04-01T02:30:45.788Z,96.28
2023-04-01T02:31:51.662Z,96.13
2023-04-01T02:32:56.578Z,96.38
2023-04-01T02:33:59.942Z,96.45
2023-04-01T02:35:06.894Z,96.56
2023-04-01T02:36:17.595Z,96.49
2023-04-01T02:37:21.245Z,96.63
2023-04-01T02:38:24.535Z,96.73
2023-04-01T02:39:27.792Z,96.74
2023-04-01T02:40:30.833Z,96.66
2023-04-01T02:41:40.218Z,96.73
2023-04-01T02:42:43.700Z,96.74
2023-04-01T02:43:46.673Z,96.67
2023-04-01T02:44:50.109Z,96.70
2023-04-01T02:45:53.404Z,96.73
2023-04-01T02:46:56.341Z,96.70
2023-04-01T02:47:59.312Z,96.71
2023-04-01T02:49:03.772Z,96.55
2023-04-01T02:50:08.534Z,96.49
2023-04-01T02:51:11.482Z,96.49
2023-04-01T02:52:14.568Z,96.39
2023-04-01T02:53:18.130Z,96.44
2023-04-01T02:54:21.257Z,96.44
2023-04-01T02:55:24.495Z,96.34
2023-04-01T02:56:27.609Z,96.34
2023-04-01T02:57:30.811Z,96.37
2023-04-01T02:58:33.755Z,96.36
2023-04-01T02:59:36.721Z,96.47
2023-04-01T03:00:39.621Z,96.63
2023-04-01T03:01:42.858Z,96.53
2023-04-01T03:02:46.061Z,96.64
2023-04-01T03:03:49.463Z,96.58
2023-04-01T03:04:52.471Z,96.68
2023-04-01T03:05:57.343Z,96.57
2023-04-01T03:07:00.271Z,96.63
2023-04-01T03:08:04.578Z,96.61
2023-04-01T03:09:07.472Z,96.73
2023-04-01T03:10:10.924Z,96.70
2023-04-01T03:11:14.566Z,96.88
2023-04-01T03:12:17.832Z,96.80
2023-04-01T03:13:24.013Z,96.75
2023-04-01T03:14:27.415Z,96.77
2023-04-01T03:15:30.751Z,96.77
2023-04-01T03:16:33.955Z,96.75
2023-04-01T03:17:38.724Z,96.82
2023-04-01T03:18:41.949Z,96.75
2023-04-01T03:19:44.807Z,96.93
2023-04-01T03:20:48.004Z,96.82
2023-04-01T03:21:51.052Z,96.98
2023-04-01T03:22:53.888Z,96.94
2023-04-01T03:23:56.774Z,96.97
2023-04-01T03:24:59.653Z,97.00
2023-04-01T03:26:02.578Z,96.98
2023-04-01T03:27:05.562Z,96.94
2023-04-01T03:28:08.480Z,96.96
2023-04-01T03:29:11.699Z,96.93
2023-04-01T03:30:15.402Z,97.02
2023-04-01T03:31:23.927Z,96.99
2023-04-01T03:32:28.889Z,97.10
2023-04-01T03:33:32.348Z,97.10
2023-04-01T03:34:35.725Z,97.20
2023-04-01T03:35:39.017Z,97.16
2023-04-01T03:36:42.367Z,97.25
2023-04-01T03:37:45.479Z,97.22
2023-04-01T03:38:48.474Z,97.20
2023-04-01T03:39:53.877Z,97.18
2023-04-01T03:40:56.824Z,97.21
2023-04-01T03:42:00.073Z,97.31
2023-04-01T03:43:03.124Z,97.24
2023-04-01T03:44:06.514Z,97.28
2023-04-01T03:45:10.350Z,97.33
2023-04-01T03:46:18.392Z,97.36
2023-04-01T03:47:21.308Z,97.35
2023-04-01T03:48:24.499Z,97.32
2023-04-01T03:49:27.674Z,97.22
2023-04-01T03:50:31.193Z,97.35
2023-04-01T03:51:35.778Z,97.34
2023-04-01T03:52:38.684Z,97.40
2023-04-01T03:53:41.904Z,97.42
2023-04-01T03:54:44.814Z,97.49
2023-04-01T03:55:48.147Z,97.38
2023-04-01T03:56:52.134Z,97.44
2023-04-01T03:57:55.189Z,97.40
2023-04-01T03:58:58.253Z,97.17
2023-04-01T04:00:01.563Z,97.41
2023-04-01T04:01:13.865Z,97.28
2023-04-01T04:02:16.988Z,97.38
2023-04-01T04:03:21.303Z,97.21
2023-04-01T04:04:24.598Z,97.43
2023-04-01T04:05:28.448Z,97.38
2023-04-01T04:06:31.866Z,97.19
2023-04-01T04:07:36.210Z,97.43
2023-04-01T04:08:42.214Z,97.55
2023-04-01T04:09:45.424Z,97.30
2023-04-01T04:10:49.101Z,97.23
2023-04-01T04:11:52.637Z,97.35
2023-04-01T04:12:56.442Z,97.19
2023-04-01T04:14:00.743Z,97.30
2023-04-01T04:15:04.002Z,97.10
2023-04-01T04:16:07.398Z,97.14
2023-04-01T04:17:17.236Z,97.15
2023-04-01T04:18:20.861Z,97.23
2023-04-01T04:19:24.059Z,97.27
2023-04-01T04:20:27.279Z,97.16
2023-04-01T04:21:30.480Z,97.35
2023-04-01T04:22:33.524Z,97.16
2023-04-01T04:23:38.284Z,97.17
2023-04-01T04:24:41.333Z,97.18
2023-04-01T04:26:07.665Z,97.18
2023-04-01T04:27:10.769Z,97.33
2023-04-01T04:28:19.678Z,97.38
2023-04-01T04:29:23.900Z,97.38
2023-04-01T04:30:27.202Z,97.39
2023-04-01T04:31:30.280Z,97.34
2023-04-01T04:32:34.471Z,97.32
2023-04-01T04:33:38.018Z,97.42
2023-04-01T04:34:41.081Z,97.30
2023-04-01T04:35:44.164Z,97.24
2023-04-01T04:36:47.211Z,97.20
2023-04-01T04:37:51.258Z,97.36
2023-04-01T04:38:54.769Z,97.39
2023-04-01T04:39:57.752Z,97.27
2023-04-01T04:41:01.363Z,97.22
2023-04-01T04:42:04.476Z,97.28
2023-04-01T04:43:07.568Z,97.17
2023-04-01T04:44:10.418Z,97.17
2023-04-01T04:45:13.779Z,97.19
2023-04-01T04:46:21.342Z,97.21
2023-04-01T04:47:25.740Z,97.26
2023-04-01T04:48:28.722Z,97.21
2023-04-01T04:49:32.168Z,97.24
2023-04-01T04:50:36.296Z,97.05
2023-04-01T04:51:39.339Z,97.16
2023-04-01T04:52:42.523Z,97.18
2023-04-01T04:53:46.007Z,97.20
2023-04-01T04:54:49.081Z,97.04
2023-04-01T04:55:52.073Z,97.04
2023-04-01T04:57:08.308Z,97.13
2023-04-01T04:58:21.318Z,97.11
2023-04-01T04:59:24.310Z,97.22
2023-04-01T05:00:47.732Z,97.21
2023-04-01T05:02:03.931Z,97.23
2023-04-01T05:03:07.215Z,97.13
2023-04-01T05:04:10.781Z,97.25
2023-04-01T05:05:13.826Z,97.30
2023-04-01T05:06:17.876Z,97.26
2023-04-01T05:07:20.980Z,97.26
2023-04-01T05:08:24.406Z,97.32
2023-04-01T05:09:27.620Z,97.19
2023-04-01T05:10:31.798Z,97.15
2023-04-01T05:11:34.748Z,97.22
2023-04-01T05:12:39.781Z,97.32
2023-04-01T05:13:45.996Z,97.30
2023-04-01T05:14:48.869Z,97.41
2023-04-01T05:15:52.175Z,97.40
2023-04-01T05:16:55.983Z,97.33
2023-04-01T05:17:58.915Z,97.46
2023-04-01T05:19:02.635Z,97.48
2023-04-01T05:20:06.456Z,97.37
2023-04-01T05:21:13.652Z,97.42
2023-04-01T05:22:16.989Z,97.50
2023-04-01T05:23:22.228Z,97.36
2023-04-01T05:24:25.140Z,97.33
2023-04-01T05:25:29.124Z,97.44
2023-04-01T05:26:33.695Z,97.46
2023-04-01T05:27:36.756Z,97.42
2023-04-01T05:28:40.511Z,97.32
2023-04-01T05:29:43.433Z,97.32
2023-04-01T05:31:01.980Z,97.23
2023-04-01T05:32:10.781Z,97.31
2023-04-01T05:33:14.280Z,97.28
2023-04-01T05:34:17.483Z,97.16
2023-04-01T05:35:20.378Z,97.27
2023-04-01T05:36:23.514Z,97.09
2023-04-01T05:37:26.704Z,97.08
2023-04-01T05:38:30.646Z,97.16
2023-04-01T05:39:37.747Z,97.26
2023-04-01T05:40:41.168Z,97.30
2023-04-01T05:41:44.202Z,97.30
2023-04-01T05:42:47.186Z,97.23
2023-04-01T05:43:50.927Z,97.17
2023-04-01T05:45:12.483Z,97.14
2023-04-01T05:46:38.576Z,97.17
2023-04-01T05:48:02.365Z,97.19
2023-04-01T05:49:08.100Z,97.13
2023-04-01T05:50:13.463Z,97.29
2023-04-01T05:51:16.816Z,97.34
2023-04-01T05:52:19.704Z,97.16
2023-04-01T05:53:23.291Z,97.15
2023-04-01T05:54:26.329Z,97.25
2023-04-01T05:55:29.351Z,97.24
2023-04-01T05:56:32.353Z,97.13
2023-04-01T05:57:35.911Z,97.24
2023-04-01T05:58:55.253Z,97.27
2023-04-01T05:59:59.125Z,97.26
2023-04-01T06:01:16.188Z,97.40
2023-04-01T06:02:20.530Z,97.43
2023-04-01T06:03:23.674Z,97.53
2023-04-01T06:04:33.142Z,97.49
2023-04-01T06:05:44.021Z,97.46
2023-04-01T06:06:47.131Z,97.49
2023-04-01T06:08:00.403Z,97.58
2023-04-01T06:09:15.213Z,97.61
2023-04-01T06:10:33.391Z,97.53
2023-04-01T06:11:42.155Z,97.55
2023-04-01T06:13:22.939Z,97.52
2023-04-01T06:14:32.690Z,97.50
2023-04-01T06:15:55.548Z,97.51
2023-04-01T06:17:06.097Z,97.56
2023-04-01T06:18:26.840Z,97.58
2023-04-01T06:19:53.996Z,97.50
2023-04-01T06:21:08.639Z,97.46
2023-04-01T06:22:30.557Z,97.40
2023-04-01T06:23:41.522Z,97.40
2023-04-01T06:25:06.894Z,97.35
2023-04-01T06:26:25.743Z,97.40
2023-04-01T06:27:49.884Z,97.34
2023-04-01T06:29:29.805Z,97.30
2023-04-01T06:30:36.133Z,97.25
2023-04-01T06:32:06.288Z,97.25
2023-04-01T06:33:29.989Z,97.30
2023-04-01T06:34:39.424Z,97.33
2023-04-01T06:36:12.735Z,97.33
2023-04-01T06:37:38.958Z,97.34
2023-04-01T06:39:23.400Z,97.34
2023-04-01T06:40:42.297Z,97.35
2023-04-01T06:42:00.809Z,97.26
2023-04-01T06:43:22.722Z,97.29
2023-04-01T06:45:13.378Z,97.37
2023-04-01T06:46:34.768Z,97.40
2023-04-01T06:48:12.334Z,97.27
2023-04-01T06:49:54.103Z,97.19
2023-04-01T06:51:28.198Z,97.23
2023-04-01T06:53:18.885Z,97.28
2023-04-01T06:54:45.952Z,97.34
2023-04-01T06:56:11.788Z,97.37
2023-04-01T06:57:48.322Z,97.40
2023-04-01T06:58:57.050Z,97.39
2023-04-01T07:00:05.792Z,97.29
2023-04-01T07:01:13.885Z,97.20
2023-04-01T07:02:24.641Z,97.17
2023-04-01T07:03:37.312Z,97.21
2023-04-01T07:04:48.249Z,97.22
2023-04-01T07:05:52.289Z,97.21
2023-04-01T07:07:02.854Z,97.31
2023-04-01T07:08:11.109Z,97.19
2023-04-01T07:09:21.001Z,97.20
2023-04-01T07:10:54.590Z,97.22
2023-04-01T07:12:43.995Z,97.37
2023-04-01T07:14:16.111Z,97.38
2023-04-01T07:16:04.183Z,97.36
2023-04-01T07:17:17.092Z,97.44
2023-04-01T07:18:26.896Z,97.42
2023-04-01T07:19:48.991Z,97.37
2023-04-01T07:20:53.058Z,97.42
2023-04-01T07:21:59.584Z,97.48
2023-04-01T07:23:27.275Z,97.62
2023-04-01T07:24:49.590Z,97.67
2023-04-01T07:25:56.913Z,97.72
2023-04-01T07:27:09.945Z,97.62
2023-04-01T07:28:17.727Z,97.54
2023-04-01T07:29:24.434Z,97.47
2023-04-01T07:30:44.090Z,97.65
2023-04-01T07:32:22.651Z,97.63
2023-04-01T07:33:43.457Z,97.55
2023-04-01T07:35:08.141Z,97.57
2023-04-01T07:36:39.653Z,97.70
2023-04-01T07:38:03.880Z,97.72
2023-04-01T07:39:06.802Z,97.79
2023-04-01T07:40:44.595Z,97.74
2023-04-01T07:42:11.920Z,97.58
2023-04-01T07:43:38.923Z,97.45
2023-04-01T07:45:16.191Z,97.38
2023-04-01T07:46:22.098Z,97.47
2023-04-01T07:48:03.621Z,97.47
2023-04-01T07:49:18.481Z,97.46
2023-04-01T07:50:33.910Z,97.40
2023-04-01T07:51:49.914Z,97.52
2023-04-01T07:53:00.436Z,97.43
2023-04-01T07:54:23.854Z,97.55
2023-04-01T07:55:41.400Z,97.62
2023-04-01T07:57:17.392Z,97.65
2023-04-01T07:58:33.038Z,97.82
2023-04-01T08:00:28.750Z,98.00
2023-04-01T08:02:11.087Z,98.16
2023-04-01T08:03:32.745Z,97.92
2023-04-01T08:04:36.592Z,97.66
2023-04-01T08:05:53.645Z,97.68
2023-04-01T08:07:08.228Z,97.55
2023-04-01T08:08:22.186Z,97.43
2023-04-01T08:10:14.068Z,97.36
2023-04-01T08:12:10.408Z,97.52
2023-04-01T08:14:11.550Z,97.40
2023-04-01T08:16:01.848Z,97.47
2023-04-01T08:17:28.178Z,97.40
2023-04-01T08:18:50.999Z,97.34
2023-04-01T08:20:06.098Z,97.49
2023-04-01T08:21:35.217Z,97.37
2023-04-01T08:22:46.615Z,97.41
2023-04-01T08:23:59.721Z,97.36
2023-04-01T08:25:08.864Z,97.33
2023-04-01T08:26:27.265Z,97.29
2023-04-01T08:27:38.143Z,97.25
2023-04-01T08:28:59.713Z,97.29
2023-04-01T08:30:19.484Z,97.35
2023-04-01T08:31:38.685Z,97.46
2023-04-01T08:32:47.024Z,97.52
2023-04-01T08:33:54.272Z,97.35
2023-04-01T08:35:32.105Z,97.28
2023-04-01T08:36:40.002Z,97.49
2023-04-01T08:37:52.965Z,97.48
2023-04-01T08:39:11.940Z,97.35
2023-04-01T08:40:40.869Z,97.35
2023-04-01T08:42:29.905Z,97.19
2023-04-01T08:43:40.435Z,97.10
2023-04-01T08:45:05.812Z,97.11
2023-04-01T08:46:30.902Z,97.27
2023-04-01T08:47:46.235Z,97.50
2023-04-01T08:49:09.449Z,97.51
2023-04-01T08:50:31.393Z,97.46
2023-04-01T08:52:07.178Z,97.21
2023-04-01T08:53:28.733Z,97.02
2023-04-01T08:54:43.647Z,97.13
2023-04-01T08:56:04.482Z,97.24
2023-04-01T08:57:46.035Z,97.28
2023-04-01T08:59:27.419Z,97.47
2023-04-01T09:00:49.999Z,97.47
2023-04-01T09:02:40.731Z,97.62
2023-04-01T09:03:54.474Z,97.61
2023-04-01T09:05:18.959Z,97.55
2023-04-01T09:06:33.115Z,97.46
2023-04-01T09:08:04.781Z,97.51
2023-04-01T09:09:25.653Z,97.32
2023-04-01T09:10:48.650Z,96.94
2023-04-01T09:13:08.289Z,96.45
2023-04-01T09:14:31.357Z,96.57
2023-04-01T09:16:24.744Z,96.79
2023-04-01T09:17:58.335Z,96.65
2023-04-01T09:19:20.951Z,96.64
2023-04-01T09:20:41.670Z,96.68
2023-04-01T09:21:57.170Z,96.74
2023-04-01T09:23:20.078Z,96.95
2023-04-01T09:25:01.140Z,97.03
2023-04-01T09:26:10.073Z,96.85
2023-04-01T09:27:56.376Z,96.80
2023-04-01T09:29:23.558Z,96.64
2023-04-01T09:30:36.021Z,96.58
2023-04-01T09:31:49.325Z,96.20
2023-04-01T09:33:58.936Z,96.18
2023-04-01T09:35:49.270Z,96.10
2023-04-01T09:37:03.150Z,96.05
2023-04-01T09:38:21.166Z,96.03
2023-04-01T09:39:36.704Z,96.17
2023-04-01T09:40:48.635Z,96.28
2023-04-01T09:42:09.031Z,96.37
2023-04-01T09:43:29.951Z,96.66
2023-04-01T09:45:01.557Z,96.75
2023-04-01T09:46:18.743Z,96.96
2023-04-01T09:48:00.578Z,96.79
2023-04-01T09:49:40.134Z,96.58
2023-04-01T09:51:01.884Z,96.60
2023-04-01T09:52:14.009Z,96.57
2023-04-01T09:53:33.928Z,96.48
2023-04-01T09:54:52.908Z,96.48
2023-04-01T09:56:07.976Z,96.30
2023-04-01T09:57:34.317Z,96.24
2023-04-01T09:59:22.582Z,96.32
2023-04-01T10:01:09.555Z,96.45
2023-04-01T10:02:54.596Z,96.47
2023-04-01T10:04:03.780Z,96.34
2023-04-01T10:05:47.232Z,96.25
2023-04-01T10:07:11.507Z,96.34
2023-04-01T10:08:53.745Z,96.04
2023-04-01T10:10:26.397Z,96.00
2023-04-01T10:11:35.052Z,96.35
2023-04-01T10:13:03.654Z,96.29
2023-04-01T10:14:12.879Z,96.22
2023-04-01T10:15:41.144Z,96.29
2023-04-01T10:16:54.352Z,96.37
2023-04-01T10:18:34.624Z,96.19
2023-04-01T10:19:57.798Z,96.41
2023-04-01T10:21:26.445Z,96.46
2023-04-01T10:22:47.992Z,96.22
2023-04-01T10:24:21.464Z,95.96
2023-04-01T10:25:33.183Z,95.90
2023-04-01T10:26:56.250Z,96.04
2023-04-01T10:28:29.946Z,96.15
2023-04-01T10:30:00.501Z,96.19
2023-04-01T10:31:15.699Z,96.24
2023-04-01T10:32:48.461Z,96.49
2023-04-01T10:34:25.478Z,96.61
2023-04-01T10:35:52.973Z,96.53
2023-04-01T10:37:02.557Z,96.59
2023-04-01T10:38:41.645Z,96.55
2023-04-01T10:39:56.724Z,96.79
2023-04-01T10:41:38.081Z,96.97
2023-04-01T10:43:31.664Z,96.78
2023-04-01T10:45:10.276Z,96.62
2023-04-01T10:46:30.032Z,96.71
2023-04-01T10:48:21.420Z,96.90
2023-04-01T10:50:08.932Z,96.88
2023-04-01T10:51:26.289Z,96.93
2023-04-01T10:52:54.348Z,96.72
2023-04-01T10:55:04.626Z,96.42
2023-04-01T10:56:42.819Z,96.33
2023-04-01T10:58:38.754Z,96.20
2023-04-01T11:00:29.300Z,96.14
2023-04-01T11:02:37.612Z,96.18
2023-04-01T11:04:40.484Z,96.46
2023-04-01T11:06:29.089Z,96.49
2023-04-01T11:08:07.301Z,96.24
2023-04-01T11:09:11.677Z,96.17
2023-04-01T11:10:17.204Z,95.88
2023-04-01T11:11:39.981Z,96.09
2023-04-01T11:13:17.953Z,96.03
2023-04-01T11:14:22.344Z,96.07
2023-04-01T11:16:02.077Z,95.94
2023-04-01T11:17:44.233Z,95.90
2023-04-01T11:19:19.442Z,95.91
2023-04-01T11:21:01.282Z,96.00
2023-04-01T11:22:33.448Z,95.87
2023-04-01T11:24:03.994Z,96.06
2023-04-01T11:25:31.710Z,96.03
2023-04-01T11:27:15.125Z,96.07
2023-04-01T11:28:27.074Z,95.88
2023-04-01T11:29:59.306Z,95.91
2023-04-01T11:31:48.614Z,95.97
2023-04-01T11:32:54.684Z,95.99
2023-04-01T11:34:25.661Z,95.87
2023-04-01T11:36:08.989Z,95.93
2023-04-01T11:37:31.371Z,96.37
2023-04-01T11:39:13.227Z,96.68
2023-04-01T11:40:57.442Z,96.62
2023-04-01T11:42:58.918Z,96.82
2023-04-01T11:46:12.317Z,96.34
2023-04-01T11:47:40.609Z,96.36
2023-04-01T11:48:58.244Z,96.08
2023-04-01T11:50:11.580Z,96.12
2023-04-01T11:52:11.624Z,96.03
2023-04-01T11:53:37.699Z,96.29
2023-04-01T11:55:03.361Z,96.39
2023-04-01T11:56:30.723Z,96.38
2023-04-01T11:58:01.226Z,95.88
2023-04-01T11:59:18.972Z,95.72
2023-04-01T12:00:49.459Z,95.55
2023-04-01T12:02:29.850Z,94.68
2023-04-01T12:03:42.950Z,95.00
2023-04-01T12:04:58.028Z,95.15
2023-04-01T12:06:38.481Z,95.31
2023-04-01T12:07:54.616Z,95.39
2023-04-01T12:09:16.095Z,95.61
2023-04-01T12:10:26.473Z,95.29
2023-04-01T12:11:56.298Z,95.20
2023-04-01T12:13:36.010Z,94.99
2023-04-01T12:15:00.455Z,94.49
2023-04-01T12:16:05.890Z,94.17
2023-04-01T12:17:46.488Z,94.19
2023-04-01T12:19:11.293Z,94.57
2023-04-01T12:20:14.188Z,94.51
2023-04-01T12:21:42.898Z,94.07
2023-04-01T12:23:04.059Z,94.31
2023-04-01T12:24:29.734Z,94.72
2023-04-01T12:26:04.011Z,94.92
2023-04-01T12:27:27.158Z,94.85
2023-04-01T12:28:38.614Z,94.54
2023-04-01T12:30:06.314Z,94.61
2023-04-01T12:31:24.970Z,93.73
2023-04-01T12:32:52.161Z,93.43
2023-04-01T12:34:23.032Z,93.45
2023-04-01T12:35:33.706Z,92.79
2023-04-01T12:37:01.737Z,92.05
2023-04-01T12:38:13.491Z,91.24
2023-04-01T12:39:54.178Z,91.19
2023-04-01T12:41:27.909Z,90.84
2023-04-01T12:43:23.730Z,90.29
2023-04-01T12:44:44.728Z,89.81
2023-04-01T12:46:12.811Z,89.60
2023-04-01T12:47:40.209Z,89.59
2023-04-01T12:49:21.238Z,89.19
2023-04-01T12:50:40.986Z,89.48
2023-04-01T12:51:58.757Z,89.98
2023-04-01T12:53:40.738Z,90.48
2023-04-01T12:54:46.649Z,89.92
2023-04-01T12:55:53.591Z,89.32
2023-04-01T12:57:15.546Z,89.19
2023-04-01T12:58:42.172Z,89.52
2023-04-01T13:00:04.897Z,89.40
2023-04-01T13:01:23.209Z,89.00
2023-04-01T13:02:31.878Z,88.93
2023-04-01T13:04:15.703Z,88.89
2023-04-01T13:05:48.181Z,89.00
2023-04-01T13:07:04.338Z,89.26
2023-04-01T13:08:38.084Z,89.69
2023-04-01T13:10:04.314Z,89.51
2023-04-01T13:11:14.988Z,89.68
2023-04-01T13:12:45.825Z,89.90
2023-04-01T13:14:24.982Z,89.70
2023-04-01T13:16:10.683Z,89.77
2023-04-01T13:17:16.182Z,89.91
2023-04-01T13:18:35.094Z,90.02
2023-04-01T13:20:04.271Z,89.97
2023-04-01T13:21:22.888Z,90.14
2023-04-01T13:22:50.663Z,90.22
2023-04-01T13:24:18.568Z,90.15
2023-04-01T13:25:43.029Z,90.15
2023-04-01T13:27:03.782Z,90.29
2023-04-01T13:28:09.625Z,90.15
2023-04-01T13:29:22.099Z,90.22
2023-04-01T13:30:25.886Z,90.46
2023-04-01T13:32:03.571Z,90.72
2023-04-01T13:33:15.498Z,90.69
2023-04-01T13:34:53.657Z,90.70
2023-04-01T13:36:18.115Z,90.56
2023-04-01T13:37:58.854Z,90.83
2023-04-01T13:39:08.083Z,91.02
2023-04-01T13:40:59.641Z,91.02
2023-04-01T13:42:53.325Z,91.06
2023-04-01T13:44:12.393Z,91.13
2023-04-01T13:45:20.750Z,91.17
2023-04-01T13:46:51.435Z,91.29
2023-04-01T13:48:23.737Z,91.37
2023-04-01T13:50:05.856Z,91.04
2023-04-01T13:51:47.858Z,91.01
2023-04-01T13:53:04.052Z,90.77
2023-04-01T13:54:34.683Z,90.87
2023-04-01T13:55:47.972Z,90.52
2023-04-01T13:57:09.471Z,90.45
2023-04-01T13:58:25.087Z,90.58
2023-04-01T13:59:47.742Z,90.49
2023-04-01T14:01:25.117Z,90.43
2023-04-01T14:02:58.419Z,90.57
2023-04-01T14:04:17.160Z,90.67
2023-04-01T14:05:43.250Z,90.85
2023-04-01T14:07:09.351Z,91.11
2023-04-01T14:08:37.356Z,91.50
2023-04-01T14:09:46.101Z,91.59
2023-04-01T14:10:59.513Z,91.61
2023-04-01T14:12:28.268Z,91.74
2023-04-01T14:13:51.420Z,91.97
2023-04-01T14:15:16.942Z,92.03
2023-04-01T14:16:50.474Z,92.25
2023-04-01T14:17:53.386Z,92.41
2023-04-01T14:19:33.775Z,92.83
2023-04-01T14:21:02.727Z,93.10
2023-04-01T14:22:11.443Z,93.60
2023-04-01T14:23:32.780Z,93.79
2023-04-01T14:24:58.529Z,93.86
2023-04-01T14:26:22.677Z,93.80
2023-04-01T14:28:02.413Z,93.89
2023-04-01T14:29:42.784Z,94.14
2023-04-01T14:31:04.398Z,94.37
2023-04-01T14:32:37.917Z,94.52
2023-04-01T14:34:05.753Z,94.49
2023-04-01T14:35:27.838Z,94.48
2023-04-01T14:37:02.532Z,94.47
2023-04-01T14:38:08.251Z,94.28
2023-04-01T14:39:20.115Z,94.37
2023-04-01T14:40:30.455Z,94.67
2023-04-01T14:41:54.302Z,94.76
2023-04-01T14:43:18.354Z,94.73
2023-04-01T14:44:52.326Z,94.87
2023-04-01T14:46:31.766Z,94.85
2023-04-01T14:47:59.831Z,94.83
2023-04-01T14:49:18.813Z,94.62
2023-04-01T14:50:41.347Z,94.65
2023-04-01T14:51:44.744Z,94.62
2023-04-01T14:53:28.806Z,94.71
2023-04-01T14:54:38.804Z,94.84
2023-04-01T14:55:45.141Z,94.81
2023-04-01T14:57:24.847Z,94.81
2023-04-01T14:59:00.589Z,94.84
2023-04-01T15:00:18.296Z,94.94
2023-04-01T15:02:09.183Z,94.97
2023-04-01T15:03:28.027Z,95.14
2023-04-01T15:04:39.754Z,95.18
2023-04-01T15:06:02.002Z,95.17
2023-04-01T15:07:16.643Z,95.21
2023-04-01T15:08:33.322Z,95.33
2023-04-01T15:10:09.130Z,95.37
2023-04-01T15:11:22.826Z,95.47
2023-04-01T15:13:04.751Z,95.62
2023-04-01T15:14:14.862Z,95.68
2023-04-01T15:15:33.967Z,95.54
2023-04-01T15:16:56.479Z,95.26
2023-04-01T15:18:09.285Z,95.35
2023-04-01T15:19:25.540Z,95.41
2023-04-01T15:20:34.218Z,95.40
2023-04-01T15:21:42.918Z,95.46
2023-04-01T15:23:01.895Z,95.35
2023-04-01T15:24:17.022Z,95.38
2023-04-01T15:25:50.725Z,95.41
2023-04-01T15:26:56.450Z,95.42
2023-04-01T15:28:05.040Z,95.46
2023-04-01T15:29:22.241Z,95.52
2023-04-01T15:30:49.755Z,95.50
2023-04-01T15:32:37.437Z,95.42
2023-04-01T15:33:53.445Z,95.50
2023-04-01T15:35:14.942Z,95.55
2023-04-01T15:36:40.293Z,95.59
2023-04-01T15:37:56.409Z,95.56
2023-04-01T15:39:06.670Z,95.44
2023-04-01T15:40:30.124Z,95.34
2023-04-01T15:42:01.052Z,95.33
2023-04-01T15:43:14.309Z,95.49
2023-04-01T15:44:46.283Z,95.54
2023-04-01T15:46:07.879Z,95.35
2023-04-01T15:47:36.629Z,95.33
2023-04-01T15:48:50.270Z,95.36
2023-04-01T15:50:24.465Z,95.43
2023-04-01T15:51:30.533Z,95.45
2023-04-01T15:52:52.339Z,95.51
2023-04-01T15:53:57.809Z,95.50
2023-04-01T15:55:25.537Z,95.46
2023-04-01T15:57:05.467Z,95.44
2023-04-01T15:58:50.104Z,95.48
2023-04-01T16:00:12.172Z,95.40
2023-04-01T16:01:36.090Z,95.30
2023-04-01T16:02:49.214Z,95.27
2023-04-01T16:04:11.084Z,95.23
2023-04-01T16:05:37.019Z,95.15
2023-04-01T16:06:59.085Z,95.03
2023-04-01T16:08:43.358Z,95.02
2023-04-01T16:10:07.237Z,94.94
2023-04-01T16:11:18.160Z,95.04
2023-04-01T16:12:27.068Z,95.13
2023-04-01T16:13:51.803Z,95.16
2023-04-01T16:15:15.525Z,95.17
2023-04-01T16:16:33.525Z,95.27
2023-04-01T16:17:54.935Z,95.26
2023-04-01T16:19:08.841Z,95.18
2023-04-01T16:20:28.834Z,95.18
2023-04-01T16:21:43.970Z,95.28
2023-04-01T16:23:12.772Z,95.31
2023-04-01T16:24:26.311Z,95.49
2023-04-01T16:25:46.336Z,95.52
2023-04-01T16:27:08.034Z,95.46
2023-04-01T16:28:27.150Z,95.53
2023-04-01T16:30:01.088Z,95.52
2023-04-01T16:31:37.037Z,95.56
2023-04-01T16:32:50.686Z,95.56
2023-04-01T16:34:02.803Z,95.59
2023-04-01T16:35:22.138Z,95.63